sensor_id;sensor_type;location;lat;lon;timestamp;P1;durP1;ratioP1;P2;durP2;ratioP2
76675;SDS011;69204;55.350;36.906;2024-02-26T00:00:55;6.00;;;2.90;;
76675;SDS011;69204;55.350;36.906;2024-02-26T00:05:56;6.85;;;3.28;;
76675;SDS011;69204;55.350;36.906;2024-02-26T00:10:57;7.47;;;3.67;;
76675;SDS011;69204;55.350;36.906;2024-02-26T00:15:59;6.70;;;2.90;;
76675;SDS011;69204;55.350;36.906;2024-02-26T00:21:00;6.80;;;3.97;;
76675;SDS011;69204;55.350;36.906;2024-02-26T00:26:01;8.90;;;3.22;;
76675;SDS011;69204;55.350;36.906;2024-02-26T00:31:04;6.47;;;3.55;;
76675;SDS011;69204;55.350;36.906;2024-02-26T00:36:05;7.88;;;3.85;;
76675;SDS011;69204;55.350;36.906;2024-02-26T00:41:07;6.40;;;3.50;;
76675;SDS011;69204;55.350;36.906;2024-02-26T00:46:08;7.00;;;3.60;;
76675;SDS011;69204;55.350;36.906;2024-02-26T00:51:09;6.43;;;3.47;;
76675;SDS011;69204;55.350;36.906;2024-02-26T00:56:11;6.80;;;3.20;;
76675;SDS011;69204;55.350;36.906;2024-02-26T01:01:12;7.25;;;3.08;;
76675;SDS011;69204;55.350;36.906;2024-02-26T01:06:16;7.95;;;3.85;;
76675;SDS011;69204;55.350;36.906;2024-02-26T01:11:18;6.27;;;3.07;;
76675;SDS011;69204;55.350;36.906;2024-02-26T01:16:20;6.55;;;3.20;;
76675;SDS011;69204;55.350;36.906;2024-02-26T01:21:21;6.63;;;3.15;;
76675;SDS011;69204;55.350;36.906;2024-02-26T01:26:23;7.75;;;3.33;;
76675;SDS011;69204;55.350;36.906;2024-02-26T01:31:24;7.05;;;3.55;;
76675;SDS011;69204;55.350;36.906;2024-02-26T01:36:26;10.70;;;3.40;;
76675;SDS011;69204;55.350;36.906;2024-02-26T01:41:27;7.35;;;3.03;;
76675;SDS011;69204;55.350;36.906;2024-02-26T01:46:29;9.05;;;3.25;;
76675;SDS011;69204;55.350;36.906;2024-02-26T01:51:31;6.15;;;2.95;;
76675;SDS011;69204;55.350;36.906;2024-02-26T01:56:33;4.82;;;2.55;;
76675;SDS011;69204;55.350;36.906;2024-02-26T02:01:35;5.53;;;2.80;;
76675;SDS011;69204;55.350;36.906;2024-02-26T02:06:37;6.40;;;2.97;;
76675;SDS011;69204;55.350;36.906;2024-02-26T02:11:39;7.13;;;2.85;;
76675;SDS011;69204;55.350;36.906;2024-02-26T02:16:40;8.50;;;2.70;;
76675;SDS011;69204;55.350;36.906;2024-02-26T02:21:42;6.55;;;2.83;;
76675;SDS011;69204;55.350;36.906;2024-02-26T02:26:43;4.33;;;2.53;;
76675;SDS011;69204;55.350;36.906;2024-02-26T02:31:44;11.07;;;3.08;;
76675;SDS011;69204;55.350;36.906;2024-02-26T02:36:52;7.80;;;2.60;;
76675;SDS011;69204;55.350;36.906;2024-02-26T02:41:54;9.35;;;2.83;;
76675;SDS011;69204;55.350;36.906;2024-02-26T02:46:55;6.05;;;2.83;;
76675;SDS011;69204;55.350;36.906;2024-02-26T02:51:56;5.33;;;2.80;;
76675;SDS011;69204;55.350;36.906;2024-02-26T02:56:58;7.32;;;2.95;;
76675;SDS011;69204;55.350;36.906;2024-02-26T03:01:59;6.28;;;3.38;;
76675;SDS011;69204;55.350;36.906;2024-02-26T03:07:00;7.32;;;3.08;;
76675;SDS011;69204;55.350;36.906;2024-02-26T03:12:02;6.15;;;3.25;;
76675;SDS011;69204;55.350;36.906;2024-02-26T03:17:03;6.53;;;2.37;;
76675;SDS011;69204;55.350;36.906;2024-02-26T03:22:05;5.50;;;2.95;;
76675;SDS011;69204;55.350;36.906;2024-02-26T03:27:06;6.45;;;2.65;;
76675;SDS011;69204;55.350;36.906;2024-02-26T03:32:09;5.15;;;2.72;;
76675;SDS011;69204;55.350;36.906;2024-02-26T03:37:11;6.47;;;2.60;;
76675;SDS011;69204;55.350;36.906;2024-02-26T03:42:12;5.27;;;3.17;;
76675;SDS011;69204;55.350;36.906;2024-02-26T03:47:14;5.60;;;2.60;;
76675;SDS011;69204;55.350;36.906;2024-02-26T03:52:15;7.32;;;3.30;;
76675;SDS011;69204;55.350;36.906;2024-02-26T03:57:16;5.07;;;2.95;;
76675;SDS011;69204;55.350;36.906;2024-02-26T04:02:17;6.57;;;3.38;;
76675;SDS011;69204;55.350;36.906;2024-02-26T04:07:20;9.13;;;2.70;;
76675;SDS011;69204;55.350;36.906;2024-02-26T04:12:21;6.22;;;2.60;;
76675;SDS011;69204;55.350;36.906;2024-02-26T04:17:22;5.03;;;2.67;;
76675;SDS011;69204;55.350;36.906;2024-02-26T04:22:23;5.40;;;2.85;;
76675;SDS011;69204;55.350;36.906;2024-02-26T04:27:24;8.00;;;2.97;;
76675;SDS011;69204;55.350;36.906;2024-02-26T04:32:25;9.97;;;3.30;;
76675;SDS011;69204;55.350;36.906;2024-02-26T04:37:26;5.82;;;2.83;;
76675;SDS011;69204;55.350;36.906;2024-02-26T04:42:31;7.85;;;3.30;;
76675;SDS011;69204;55.350;36.906;2024-02-26T04:47:34;5.93;;;2.80;;
76675;SDS011;69204;55.350;36.906;2024-02-26T04:52:36;6.95;;;3.70;;
76675;SDS011;69204;55.350;36.906;2024-02-26T04:57:40;7.80;;;3.53;;
76675;SDS011;69204;55.350;36.906;2024-02-26T05:02:42;7.40;;;3.58;;
76675;SDS011;69204;55.350;36.906;2024-02-26T05:07:43;12.18;;;3.90;;
76675;SDS011;69204;55.350;36.906;2024-02-26T05:12:45;9.30;;;3.65;;
76675;SDS011;69204;55.350;36.906;2024-02-26T05:17:46;7.32;;;3.47;;
76675;SDS011;69204;55.350;36.906;2024-02-26T05:22:47;5.97;;;3.00;;
76675;SDS011;69204;55.350;36.906;2024-02-26T05:27:49;8.48;;;3.47;;
76675;SDS011;69204;55.350;36.906;2024-02-26T05:32:50;8.90;;;3.45;;
76675;SDS011;69204;55.350;36.906;2024-02-26T05:37:51;10.10;;;4.07;;
76675;SDS011;69204;55.350;36.906;2024-02-26T05:42:53;7.90;;;4.10;;
76675;SDS011;69204;55.350;36.906;2024-02-26T05:47:54;6.57;;;4.07;;
76675;SDS011;69204;55.350;36.906;2024-02-26T05:52:55;8.48;;;4.18;;
76675;SDS011;69204;55.350;36.906;2024-02-26T05:57:56;8.18;;;4.32;;
76675;SDS011;69204;55.350;36.906;2024-02-26T06:02:57;8.90;;;4.00;;
76675;SDS011;69204;55.350;36.906;2024-02-26T06:07:59;7.85;;;4.70;;
76675;SDS011;69204;55.350;36.906;2024-02-26T06:13:00;8.63;;;4.37;;
76675;SDS011;69204;55.350;36.906;2024-02-26T06:18:01;10.82;;;4.75;;
76675;SDS011;69204;55.350;36.906;2024-02-26T06:23:03;9.40;;;4.22;;
76675;SDS011;69204;55.350;36.906;2024-02-26T06:28:04;9.98;;;4.30;;
76675;SDS011;69204;55.350;36.906;2024-02-26T06:33:05;8.90;;;5.00;;
76675;SDS011;69204;55.350;36.906;2024-02-26T06:38:07;11.50;;;5.40;;
76675;SDS011;69204;55.350;36.906;2024-02-26T06:43:08;9.95;;;4.80;;
76675;SDS011;69204;55.350;36.906;2024-02-26T06:48:09;8.68;;;4.18;;
76675;SDS011;69204;55.350;36.906;2024-02-26T06:53:10;8.57;;;4.07;;
76675;SDS011;69204;55.350;36.906;2024-02-26T06:58:12;9.13;;;4.78;;
76675;SDS011;69204;55.350;36.906;2024-02-26T07:03:13;7.27;;;3.87;;
76675;SDS011;69204;55.350;36.906;2024-02-26T07:08:14;11.57;;;5.60;;
76675;SDS011;69204;55.350;36.906;2024-02-26T07:13:15;8.40;;;4.35;;
76675;SDS011;69204;55.350;36.906;2024-02-26T07:18:16;9.48;;;4.43;;
76675;SDS011;69204;55.350;36.906;2024-02-26T07:23:17;8.80;;;4.78;;
76675;SDS011;69204;55.350;36.906;2024-02-26T07:28:19;9.73;;;5.43;;
76675;SDS011;69204;55.350;36.906;2024-02-26T07:33:20;8.88;;;4.53;;
76675;SDS011;69204;55.350;36.906;2024-02-26T07:38:21;11.40;;;4.93;;
76675;SDS011;69204;55.350;36.906;2024-02-26T07:43:24;9.52;;;4.68;;
76675;SDS011;69204;55.350;36.906;2024-02-26T07:48:25;11.57;;;4.60;;
76675;SDS011;69204;55.350;36.906;2024-02-26T07:53:26;8.20;;;4.00;;
76675;SDS011;69204;55.350;36.906;2024-02-26T07:58:27;11.10;;;4.80;;
76675;SDS011;69204;55.350;36.906;2024-02-26T08:03:28;11.05;;;4.70;;
76675;SDS011;69204;55.350;36.906;2024-02-26T08:08:30;10.82;;;4.70;;
76675;SDS011;69204;55.350;36.906;2024-02-26T08:13:31;8.52;;;4.30;;
76675;SDS011;69204;55.350;36.906;2024-02-26T08:18:32;12.70;;;4.93;;
76675;SDS011;69204;55.350;36.906;2024-02-26T08:23:33;8.55;;;4.30;;
76675;SDS011;69204;55.350;36.906;2024-02-26T08:28:34;12.95;;;4.63;;
76675;SDS011;69204;55.350;36.906;2024-02-26T08:33:40;11.52;;;4.80;;
76675;SDS011;69204;55.350;36.906;2024-02-26T08:38:41;9.63;;;4.28;;
76675;SDS011;69204;55.350;36.906;2024-02-26T08:43:42;12.03;;;4.87;;
76675;SDS011;69204;55.350;36.906;2024-02-26T08:48:46;8.30;;;4.13;;
76675;SDS011;69204;55.350;36.906;2024-02-26T08:53:47;10.85;;;4.60;;
76675;SDS011;69204;55.350;36.906;2024-02-26T08:58:49;10.55;;;4.65;;
76675;SDS011;69204;55.350;36.906;2024-02-26T09:03:54;10.00;;;4.05;;
76675;SDS011;69204;55.350;36.906;2024-02-26T09:08:56;9.53;;;4.50;;
76675;SDS011;69204;55.350;36.906;2024-02-26T09:13:57;8.25;;;4.15;;
76675;SDS011;69204;55.350;36.906;2024-02-26T09:18:58;9.38;;;4.13;;
76675;SDS011;69204;55.350;36.906;2024-02-26T09:24:00;11.50;;;4.60;;
76675;SDS011;69204;55.350;36.906;2024-02-26T09:29:01;10.15;;;4.35;;
76675;SDS011;69204;55.350;36.906;2024-02-26T09:34:02;11.43;;;4.00;;
76675;SDS011;69204;55.350;36.906;2024-02-26T09:39:05;10.50;;;4.47;;
76675;SDS011;69204;55.350;36.906;2024-02-26T09:44:08;10.70;;;4.63;;
76675;SDS011;69204;55.350;36.906;2024-02-26T09:49:10;13.63;;;4.60;;
76675;SDS011;69204;55.350;36.906;2024-02-26T09:54:12;9.88;;;4.68;;
76675;SDS011;69204;55.350;36.906;2024-02-26T09:59:15;10.23;;;4.27;;
76675;SDS011;69204;55.350;36.906;2024-02-26T10:04:17;7.10;;;4.15;;
76675;SDS011;69204;55.350;36.906;2024-02-26T10:09:19;10.07;;;4.57;;
76675;SDS011;69204;55.350;36.906;2024-02-26T10:14:20;10.95;;;4.75;;
76675;SDS011;69204;55.350;36.906;2024-02-26T10:19:29;14.45;;;4.72;;
76675;SDS011;69204;55.350;36.906;2024-02-26T10:24:31;9.07;;;4.57;;
76675;SDS011;69204;55.350;36.906;2024-02-26T10:29:32;11.20;;;4.13;;
76675;SDS011;69204;55.350;36.906;2024-02-26T10:34:34;9.88;;;4.22;;
76675;SDS011;69204;55.350;36.906;2024-02-26T10:39:38;12.02;;;4.60;;
76675;SDS011;69204;55.350;36.906;2024-02-26T10:44:40;7.72;;;3.92;;
76675;SDS011;69204;55.350;36.906;2024-02-26T10:49:44;9.20;;;3.90;;
76675;SDS011;69204;55.350;36.906;2024-02-26T10:54:48;13.20;;;4.15;;
76675;SDS011;69204;55.350;36.906;2024-02-26T10:59:51;9.40;;;3.67;;
76675;SDS011;69204;55.350;36.906;2024-02-26T11:05:13;11.43;;;4.45;;
76675;SDS011;69204;55.350;36.906;2024-02-26T11:10:18;9.85;;;4.93;;
76675;SDS011;69204;55.350;36.906;2024-02-26T11:15:22;11.47;;;4.80;;
76675;SDS011;69204;55.350;36.906;2024-02-26T11:20:24;14.77;;;4.50;;
76675;SDS011;69204;55.350;36.906;2024-02-26T11:25:30;11.60;;;4.85;;
76675;SDS011;69204;55.350;36.906;2024-02-26T11:30:32;11.32;;;5.00;;
76675;SDS011;69204;55.350;36.906;2024-02-26T11:35:36;12.32;;;5.07;;
76675;SDS011;69204;55.350;36.906;2024-02-26T11:40:38;11.43;;;4.17;;
76675;SDS011;69204;55.350;36.906;2024-02-26T11:45:49;9.77;;;4.00;;
76675;SDS011;69204;55.350;36.906;2024-02-26T11:50:53;7.43;;;4.28;;
76675;SDS011;69204;55.350;36.906;2024-02-26T12:11:54;10.77;;;4.22;;
76675;SDS011;69204;55.350;36.906;2024-02-26T12:16:56;8.05;;;4.05;;
76675;SDS011;69204;55.350;36.906;2024-02-26T12:21:58;12.43;;;4.25;;
76675;SDS011;69204;55.350;36.906;2024-02-26T12:26:59;8.15;;;4.10;;
76675;SDS011;69204;55.350;36.906;2024-02-26T12:32:01;8.87;;;4.20;;
76675;SDS011;69204;55.350;36.906;2024-02-26T12:37:04;9.40;;;4.18;;
76675;SDS011;69204;55.350;36.906;2024-02-26T12:42:05;15.00;;;4.28;;
76675;SDS011;69204;55.350;36.906;2024-02-26T12:47:06;9.40;;;3.50;;
76675;SDS011;69204;55.350;36.906;2024-02-26T12:52:08;12.13;;;3.92;;
76675;SDS011;69204;55.350;36.906;2024-02-26T12:57:09;7.03;;;3.63;;
76675;SDS011;69204;55.350;36.906;2024-02-26T13:02:10;13.65;;;4.05;;
76675;SDS011;69204;55.350;36.906;2024-02-26T13:07:12;8.30;;;4.10;;
76675;SDS011;69204;55.350;36.906;2024-02-26T13:12:13;7.00;;;3.30;;
76675;SDS011;69204;55.350;36.906;2024-02-26T13:17:20;12.73;;;4.47;;
76675;SDS011;69204;55.350;36.906;2024-02-26T13:22:25;9.13;;;4.00;;
76675;SDS011;69204;55.350;36.906;2024-02-26T13:27:27;12.30;;;4.10;;
76675;SDS011;69204;55.350;36.906;2024-02-26T13:32:28;9.02;;;4.40;;
76675;SDS011;69204;55.350;36.906;2024-02-26T13:37:31;6.85;;;3.88;;
76675;SDS011;69204;55.350;36.906;2024-02-26T13:42:33;10.27;;;3.97;;
76675;SDS011;69204;55.350;36.906;2024-02-26T13:47:34;10.00;;;3.87;;
76675;SDS011;69204;55.350;36.906;2024-02-26T13:52:36;9.73;;;3.97;;
76675;SDS011;69204;55.350;36.906;2024-02-26T13:57:37;9.38;;;3.88;;
76675;SDS011;69204;55.350;36.906;2024-02-26T14:02:38;7.45;;;3.45;;
76675;SDS011;69204;55.350;36.906;2024-02-26T14:07:40;8.18;;;4.07;;
76675;SDS011;69204;55.350;36.906;2024-02-26T14:12:41;10.37;;;3.70;;
76675;SDS011;69204;55.350;36.906;2024-02-26T14:17:43;12.00;;;4.00;;
76675;SDS011;69204;55.350;36.906;2024-02-26T14:22:44;9.30;;;3.35;;
76675;SDS011;69204;55.350;36.906;2024-02-26T14:27:48;9.15;;;3.70;;
76675;SDS011;69204;55.350;36.906;2024-02-26T14:32:49;12.10;;;3.88;;
76675;SDS011;69204;55.350;36.906;2024-02-26T14:37:50;10.50;;;3.57;;
76675;SDS011;69204;55.350;36.906;2024-02-26T14:42:52;10.15;;;4.18;;
76675;SDS011;69204;55.350;36.906;2024-02-26T14:47:53;8.82;;;4.40;;
76675;SDS011;69204;55.350;36.906;2024-02-26T14:52:55;7.90;;;3.85;;
76675;SDS011;69204;55.350;36.906;2024-02-26T14:57:56;7.47;;;3.30;;
76675;SDS011;69204;55.350;36.906;2024-02-26T15:02:57;10.23;;;4.20;;
76675;SDS011;69204;55.350;36.906;2024-02-26T15:07:58;7.95;;;3.85;;
76675;SDS011;69204;55.350;36.906;2024-02-26T15:12:59;7.93;;;3.50;;
76675;SDS011;69204;55.350;36.906;2024-02-26T15:18:01;8.73;;;3.80;;
76675;SDS011;69204;55.350;36.906;2024-02-26T15:23:02;10.18;;;4.20;;
76675;SDS011;69204;55.350;36.906;2024-02-26T15:28:03;7.57;;;3.80;;
76675;SDS011;69204;55.350;36.906;2024-02-26T15:33:06;8.57;;;3.47;;
76675;SDS011;69204;55.350;36.906;2024-02-26T15:38:08;8.80;;;3.55;;
76675;SDS011;69204;55.350;36.906;2024-02-26T15:43:09;9.05;;;3.53;;
76675;SDS011;69204;55.350;36.906;2024-02-26T15:48:11;9.48;;;3.38;;
76675;SDS011;69204;55.350;36.906;2024-02-26T15:53:12;10.57;;;4.03;;
76675;SDS011;69204;55.350;36.906;2024-02-26T15:58:14;8.13;;;4.15;;
76675;SDS011;69204;55.350;36.906;2024-02-26T16:03:15;8.52;;;4.18;;
76675;SDS011;69204;55.350;36.906;2024-02-26T16:08:17;7.57;;;3.60;;
76675;SDS011;69204;55.350;36.906;2024-02-26T16:13:21;9.68;;;3.78;;
76675;SDS011;69204;55.350;36.906;2024-02-26T16:18:23;9.40;;;4.10;;
76675;SDS011;69204;55.350;36.906;2024-02-26T16:23:27;9.10;;;3.63;;
76675;SDS011;69204;55.350;36.906;2024-02-26T16:28:28;7.82;;;4.20;;
76675;SDS011;69204;55.350;36.906;2024-02-26T16:33:29;12.95;;;3.90;;
76675;SDS011;69204;55.350;36.906;2024-02-26T16:38:30;10.13;;;4.00;;
76675;SDS011;69204;55.350;36.906;2024-02-26T16:43:31;7.40;;;4.20;;
76675;SDS011;69204;55.350;36.906;2024-02-26T16:48:34;7.97;;;3.92;;
76675;SDS011;69204;55.350;36.906;2024-02-26T16:53:36;9.98;;;4.03;;
76675;SDS011;69204;55.350;36.906;2024-02-26T16:58:37;9.10;;;3.60;;
76675;SDS011;69204;55.350;36.906;2024-02-26T17:03:38;7.00;;;3.58;;
76675;SDS011;69204;55.350;36.906;2024-02-26T17:08:39;10.10;;;4.07;;
76675;SDS011;69204;55.350;36.906;2024-02-26T17:13:42;10.52;;;3.83;;
76675;SDS011;69204;55.350;36.906;2024-02-26T17:18:43;7.00;;;3.88;;
76675;SDS011;69204;55.350;36.906;2024-02-26T17:23:44;10.57;;;3.60;;
76675;SDS011;69204;55.350;36.906;2024-02-26T17:28:46;9.18;;;3.47;;
76675;SDS011;69204;55.350;36.906;2024-02-26T17:33:48;7.43;;;3.67;;
76675;SDS011;69204;55.350;36.906;2024-02-26T17:38:52;9.10;;;4.05;;
76675;SDS011;69204;55.350;36.906;2024-02-26T17:43:53;10.85;;;4.28;;
76675;SDS011;69204;55.350;36.906;2024-02-26T17:48:55;10.23;;;3.95;;
76675;SDS011;69204;55.350;36.906;2024-02-26T17:53:57;9.23;;;4.10;;
76675;SDS011;69204;55.350;36.906;2024-02-26T17:58:58;8.77;;;4.00;;
76675;SDS011;69204;55.350;36.906;2024-02-26T18:03:59;8.35;;;3.95;;
76675;SDS011;69204;55.350;36.906;2024-02-26T18:09:00;12.18;;;3.90;;
76675;SDS011;69204;55.350;36.906;2024-02-26T18:14:02;10.68;;;4.05;;
76675;SDS011;69204;55.350;36.906;2024-02-26T18:19:03;8.82;;;3.60;;
76675;SDS011;69204;55.350;36.906;2024-02-26T18:24:04;8.50;;;4.23;;
76675;SDS011;69204;55.350;36.906;2024-02-26T18:29:05;10.43;;;4.57;;
76675;SDS011;69204;55.350;36.906;2024-02-26T18:34:07;10.50;;;4.55;;
76675;SDS011;69204;55.350;36.906;2024-02-26T18:39:08;8.88;;;3.70;;
76675;SDS011;69204;55.350;36.906;2024-02-26T18:44:09;8.23;;;4.25;;
76675;SDS011;69204;55.350;36.906;2024-02-26T18:49:11;10.90;;;4.27;;
76675;SDS011;69204;55.350;36.906;2024-02-26T18:54:13;11.77;;;4.22;;
76675;SDS011;69204;55.350;36.906;2024-02-26T18:59:14;9.77;;;4.25;;
76675;SDS011;69204;55.350;36.906;2024-02-26T19:04:16;9.73;;;3.90;;
76675;SDS011;69204;55.350;36.906;2024-02-26T19:09:17;8.48;;;4.00;;
76675;SDS011;69204;55.350;36.906;2024-02-26T19:14:19;13.03;;;4.20;;
76675;SDS011;69204;55.350;36.906;2024-02-26T19:19:20;8.52;;;4.18;;
76675;SDS011;69204;55.350;36.906;2024-02-26T19:24:22;8.18;;;3.85;;
76675;SDS011;69204;55.350;36.906;2024-02-26T19:29:23;9.35;;;5.03;;
76675;SDS011;69204;55.350;36.906;2024-02-26T19:34:26;7.47;;;4.40;;
76675;SDS011;69204;55.350;36.906;2024-02-26T19:39:27;11.20;;;4.67;;
76675;SDS011;69204;55.350;36.906;2024-02-26T19:44:29;13.35;;;5.00;;
76675;SDS011;69204;55.350;36.906;2024-02-26T19:49:30;8.32;;;4.80;;
76675;SDS011;69204;55.350;36.906;2024-02-26T19:54:31;13.73;;;4.97;;
76675;SDS011;69204;55.350;36.906;2024-02-26T19:59:33;9.63;;;3.97;;
76675;SDS011;69204;55.350;36.906;2024-02-26T20:04:34;12.07;;;4.50;;
76675;SDS011;69204;55.350;36.906;2024-02-26T20:09:36;10.90;;;4.55;;
76675;SDS011;69204;55.350;36.906;2024-02-26T20:14:37;12.50;;;4.50;;
76675;SDS011;69204;55.350;36.906;2024-02-26T20:19:39;9.43;;;4.20;;
76675;SDS011;69204;55.350;36.906;2024-02-26T20:24:43;7.60;;;3.90;;
76675;SDS011;69204;55.350;36.906;2024-02-26T20:29:45;8.73;;;4.37;;
76675;SDS011;69204;55.350;36.906;2024-02-26T20:34:48;11.15;;;4.82;;
76675;SDS011;69204;55.350;36.906;2024-02-26T20:39:49;15.68;;;5.10;;
76675;SDS011;69204;55.350;36.906;2024-02-26T20:44:50;12.40;;;4.53;;
76675;SDS011;69204;55.350;36.906;2024-02-26T20:49:52;13.00;;;4.35;;
76675;SDS011;69204;55.350;36.906;2024-02-26T20:54:53;11.30;;;4.70;;
76675;SDS011;69204;55.350;36.906;2024-02-26T20:59:54;9.32;;;4.30;;
76675;SDS011;69204;55.350;36.906;2024-02-26T21:04:55;8.48;;;4.43;;
76675;SDS011;69204;55.350;36.906;2024-02-26T21:09:58;6.45;;;3.72;;
76675;SDS011;69204;55.350;36.906;2024-02-26T21:14:59;10.00;;;4.20;;
76675;SDS011;69204;55.350;36.906;2024-02-26T21:20:04;9.00;;;3.93;;
76675;SDS011;69204;55.350;36.906;2024-02-26T21:25:07;11.10;;;4.47;;
76675;SDS011;69204;55.350;36.906;2024-02-26T21:30:10;11.73;;;4.97;;
76675;SDS011;69204;55.350;36.906;2024-02-26T21:35:12;9.48;;;3.80;;
76675;SDS011;69204;55.350;36.906;2024-02-26T21:40:17;11.23;;;4.03;;
76675;SDS011;69204;55.350;36.906;2024-02-26T21:45:19;9.53;;;4.57;;
76675;SDS011;69204;55.350;36.906;2024-02-26T21:50:21;9.85;;;4.57;;
76675;SDS011;69204;55.350;36.906;2024-02-26T21:55:23;11.10;;;4.35;;
76675;SDS011;69204;55.350;36.906;2024-02-26T22:00:26;11.43;;;4.82;;
76675;SDS011;69204;55.350;36.906;2024-02-26T22:05:28;12.65;;;5.00;;
76675;SDS011;69204;55.350;36.906;2024-02-26T22:10:31;9.70;;;4.83;;
76675;SDS011;69204;55.350;36.906;2024-02-26T22:15:36;9.55;;;4.63;;
76675;SDS011;69204;55.350;36.906;2024-02-26T22:20:37;8.05;;;4.32;;
76675;SDS011;69204;55.350;36.906;2024-02-26T22:25:39;11.90;;;4.68;;
76675;SDS011;69204;55.350;36.906;2024-02-26T22:30:43;8.80;;;4.38;;
76675;SDS011;69204;55.350;36.906;2024-02-26T22:35:44;9.80;;;4.60;;
76675;SDS011;69204;55.350;36.906;2024-02-26T22:40:46;10.68;;;4.78;;
76675;SDS011;69204;55.350;36.906;2024-02-26T22:45:47;9.48;;;4.60;;
76675;SDS011;69204;55.350;36.906;2024-02-26T22:50:50;9.00;;;4.45;;
76675;SDS011;69204;55.350;36.906;2024-02-26T22:55:51;9.95;;;4.88;;
76675;SDS011;69204;55.350;36.906;2024-02-26T23:00:52;15.00;;;5.00;;
76675;SDS011;69204;55.350;36.906;2024-02-26T23:05:53;12.05;;;4.68;;
76675;SDS011;69204;55.350;36.906;2024-02-26T23:10:55;9.55;;;4.63;;
76675;SDS011;69204;55.350;36.906;2024-02-26T23:15:56;10.00;;;4.30;;
76675;SDS011;69204;55.350;36.906;2024-02-26T23:20:57;7.93;;;4.32;;
76675;SDS011;69204;55.350;36.906;2024-02-26T23:25:59;10.07;;;4.90;;
76675;SDS011;69204;55.350;36.906;2024-02-26T23:31:00;11.07;;;5.35;;
76675;SDS011;69204;55.350;36.906;2024-02-26T23:36:04;11.27;;;5.53;;
76675;SDS011;69204;55.350;36.906;2024-02-26T23:41:08;7.85;;;4.18;;
76675;SDS011;69204;55.350;36.906;2024-02-26T23:46:09;13.77;;;4.63;;
76675;SDS011;69204;55.350;36.906;2024-02-26T23:51:11;10.80;;;5.30;;
76675;SDS011;69204;55.350;36.906;2024-02-26T23:56:14;11.65;;;5.22;;
